Time;durP1;ratioP1;P1;durP2;ratioP2;P2;SDS_P1;SDS_P2;PMS_P1;PMS_P2;Temp;Humidity;BMP_temperature;BMP_pressure;BME280_temperature;BME280_humidity;BME280_pressure;Samples;Min_cycle;Max_cycle;Signal;HPM_P1;HPM_P2
2021/04/13 00:02:19;;;;;;;20.43;14.70;;;-0.60;99.90;;;;;;5083694;28;20470;-42
2021/04/13 00:04:48;;;;;;;19.30;15.17;;;-0.60;99.90;;;;;;5071951;28;20468;-42
2021/04/13 00:07:16;;;;;;;21.20;15.40;;;-0.70;99.90;;;;;;5093277;28;20472;-44
2021/04/13 00:09:45;;;;;;;18.33;15.57;;;-0.70;99.90;;;;;;5079381;28;20488;-44
2021/04/13 00:12:18;;;;;;;20.37;14.53;;;-0.70;99.90;;;;;;5093515;28;20738;-46
2021/04/13 00:14:50;;;;;;;21.67;15.90;;;-0.70;99.90;;;;;;5087248;28;20480;-43
2021/04/13 00:17:19;;;;;;;21.97;16.53;;;-0.80;99.90;;;;;;5090906;28;20461;-42
2021/04/13 00:19:56;;;;;;;22.13;17.10;;;-0.80;99.90;;;;;;5079322;28;20465;-43
2021/04/13 00:22:23;;;;;;;22.33;16.33;;;-0.70;99.90;;;;;;5083358;28;20468;-44
2021/04/13 00:24:51;;;;;;;25.60;17.30;;;-0.70;99.90;;;;;;5081233;28;20457;-41
2021/04/13 00:27:24;;;;;;;20.87;16.40;;;-0.70;99.90;;;;;;5086363;28;20893;-50
2021/04/13 00:29:51;;;;;;;23.37;16.70;;;-0.70;99.90;;;;;;5078999;28;20752;-45
2021/04/13 00:32:23;;;;;;;26.87;18.07;;;-0.70;99.90;;;;;;5063451;28;20462;-43
2021/04/13 00:34:55;;;;;;;25.10;17.90;;;-0.80;99.90;;;;;;5079166;28;20471;-44
2021/04/13 00:37:28;;;;;;;24.57;17.57;;;-0.80;99.90;;;;;;5068387;28;20462;-42
2021/04/13 00:39:56;;;;;;;23.10;16.90;;;-0.90;99.90;;;;;;5076989;28;20496;-42
2021/04/13 00:42:27;;;;;;;27.93;18.07;;;-0.90;99.90;;;;;;5073435;28;20462;-48
2021/04/13 00:44:57;;;;;;;23.47;16.50;;;-0.90;99.90;;;;;;5078898;28;20495;-43
2021/04/13 00:47:27;;;;;;;24.20;17.30;;;-0.90;99.90;;;;;;5069206;28;20493;-44
2021/04/13 00:49:57;;;;;;;22.73;16.67;;;-0.90;99.90;;;;;;5071716;28;20865;-42
2021/04/13 00:52:36;;;;;;;22.13;17.37;;;-0.90;99.90;;;;;;5066240;28;20474;-44
2021/04/13 00:55:07;;;;;;;22.07;17.00;;;-0.90;99.90;;;;;;5078045;28;20437;-42
2021/04/13 00:57:38;;;;;;;23.20;16.73;;;-0.90;99.90;;;;;;5069993;28;20561;-42
2021/04/13 01:00:07;;;;;;;24.23;17.40;;;-0.80;99.90;;;;;;5074925;28;20954;-42
2021/04/13 01:02:35;;;;;;;25.00;17.57;;;-0.80;99.90;;;;;;5075062;28;20461;-44
2021/04/13 01:05:11;;;;;;;27.07;19.93;;;-0.90;99.90;;;;;;5061033;28;20512;-44
2021/04/13 01:07:42;;;;;;;22.90;17.30;;;-1.00;99.90;;;;;;5071096;28;20571;-44
2021/04/13 01:10:13;;;;;;;23.70;17.73;;;-0.90;99.90;;;;;;5070796;28;20559;-44
2021/04/13 01:12:41;;;;;;;24.47;17.70;;;-1.10;99.90;;;;;;5075330;28;20436;-42
2021/04/13 01:15:12;;;;;;;27.03;17.60;;;-1.10;99.90;;;;;;5076253;28;20466;-42
2021/04/13 01:17:41;;;;;;;20.60;16.83;;;-1.20;99.90;;;;;;5070891;28;20471;-45
2021/04/13 01:20:20;;;;;;;25.33;17.47;;;-1.20;99.90;;;;;;5065639;28;20469;-41
2021/04/13 01:22:53;;;;;;;28.50;17.53;;;-1.20;99.90;;;;;;5068818;28;20904;-47
2021/04/13 01:25:26;;;;;;;22.80;16.93;;;-1.20;99.90;;;;;;5070774;28;21772;-42
2021/04/13 01:27:56;;;;;;;24.20;18.47;;;-1.20;99.90;;;;;;5062287;28;20751;-44
2021/04/13 01:30:30;;;;;;;23.47;16.83;;;-1.20;99.90;;;;;;5065896;28;20839;-42
2021/04/13 01:33:09;;;;;;;24.77;17.50;;;-1.20;99.90;;;;;;5061706;28;20524;-44
2021/04/13 01:35:42;;;;;;;23.57;17.77;;;-1.10;99.90;;;;;;5066551;28;20915;-42
2021/04/13 01:38:17;;;;;;;22.23;17.50;;;-1.10;99.90;;;;;;5070889;28;20471;-43
2021/04/13 01:40:46;;;;;;;22.40;17.33;;;-1.10;99.90;;;;;;5074516;28;20444;-44
2021/04/13 01:43:14;;;;;;;22.90;16.63;;;-1.20;99.90;;;;;;5060542;28;20473;-41
2021/04/13 01:45:46;;;;;;;22.80;16.00;;;-1.30;99.90;;;;;;5060176;28;20926;-47
2021/04/13 01:48:14;;;;;;;24.63;15.80;;;-1.30;99.90;;;;;;5063749;28;20462;-45
2021/04/13 01:50:44;;;;;;;21.87;17.00;;;-1.30;99.90;;;;;;5060869;28;20921;-43
2021/04/13 01:53:15;;;;;;;22.60;17.40;;;-1.30;99.90;;;;;;5070801;28;20578;-42
2021/04/13 01:55:49;;;;;;;22.93;17.70;;;-1.30;99.90;;;;;;5076450;28;20890;-41
2021/04/13 01:58:24;;;;;;;23.73;16.80;;;-1.30;99.90;;;;;;5074915;28;20466;-44
2021/04/13 02:01:02;;;;;;;23.00;16.10;;;-1.20;99.90;;;;;;5026016;28;20765;-45
2021/04/13 02:03:40;;;;;;;21.80;16.17;;;-1.20;99.90;;;;;;5027111;28;20466;-41
2021/04/13 02:06:14;;;;;;;20.67;16.23;;;-1.30;99.90;;;;;;5030522;28;20483;-46
2021/04/13 02:08:51;;;;;;;20.03;15.50;;;-1.40;99.90;;;;;;5030196;28;20939;-45
2021/04/13 02:11:24;;;;;;;20.90;16.43;;;-1.40;99.90;;;;;;5030541;28;20445;-44
2021/04/13 02:13:56;;;;;;;23.07;16.27;;;-1.40;99.90;;;;;;5022301;28;20478;-45
2021/04/13 02:16:27;;;;;;;24.87;17.00;;;-1.40;99.90;;;;;;5026647;28;20468;-44
2021/04/13 02:18:55;;;;;;;22.10;17.10;;;-1.40;99.90;;;;;;5020972;28;20468;-43
2021/04/13 02:21:28;;;;;;;22.90;16.50;;;-1.40;99.90;;;;;;5034863;28;20522;-46
2021/04/13 02:23:58;;;;;;;20.40;14.67;;;-1.50;99.90;;;;;;5026039;28;20467;-47
2021/04/13 02:26:25;;;;;;;24.30;17.77;;;-1.50;99.90;;;;;;5018215;28;20500;-44
2021/04/13 02:28:52;;;;;;;24.63;17.70;;;-1.50;99.90;;;;;;5023659;28;20765;-44
2021/04/13 02:34:14;;;;;;;21.20;15.97;;;-1.60;99.90;;;;;;5017952;28;20451;-41
2021/04/13 02:36:44;;;;;;;19.93;14.90;;;-1.70;99.90;;;;;;5021249;28;20495;-43
2021/04/13 02:39:14;;;;;;;21.70;15.77;;;-1.80;99.90;;;;;;5023837;28;20478;-43
2021/04/13 02:41:47;;;;;;;27.03;17.77;;;-1.70;99.90;;;;;;5024867;28;20479;-44
2021/04/13 02:44:18;;;;;;;25.50;16.33;;;-1.80;99.90;;;;;;5024680;28;20763;-42
2021/04/13 02:46:47;;;;;;;24.90;16.97;;;-1.80;99.90;;;;;;5035360;28;20491;-42
2021/04/13 02:49:15;;;;;;;31.43;17.97;;;-1.80;99.90;;;;;;5034474;28;20471;-42
2021/04/13 02:51:47;;;;;;;49.73;24.63;;;-1.80;99.90;;;;;;5031215;28;20473;-45
2021/04/13 02:54:20;;;;;;;43.37;22.70;;;-1.90;99.90;;;;;;5021416;28;20771;-43
2021/04/13 02:56:50;;;;;;;60.30;31.23;;;-1.90;99.90;;;;;;5037683;28;20463;-44
2021/04/13 02:59:23;;;;;;;47.97;27.17;;;-1.80;99.90;;;;;;5051812;28;20477;-42
2021/04/13 03:01:53;;;;;;;44.50;24.23;;;-1.80;99.90;;;;;;5077260;28;20465;-43
2021/04/13 03:04:21;;;;;;;40.77;23.63;;;-1.80;99.90;;;;;;5074788;28;20452;-46
2021/04/13 03:06:50;;;;;;;34.57;21.30;;;-1.80;99.90;;;;;;5070489;28;20936;-43
2021/04/13 03:09:21;;;;;;;33.03;18.83;;;-1.70;99.90;;;;;;5076710;28;20462;-42
2021/04/13 03:11:49;;;;;;;26.53;18.20;;;-1.70;99.90;;;;;;5076938;28;20461;-42
2021/04/13 03:14:19;;;;;;;27.67;18.53;;;-1.80;99.90;;;;;;5077631;28;20469;-43
2021/04/13 03:16:47;;;;;;;26.23;18.10;;;-1.80;99.90;;;;;;5076696;28;20483;-42
2021/04/13 03:19:18;;;;;;;25.03;18.27;;;-1.70;99.90;;;;;;5077642;28;20461;-43
2021/04/13 03:21:51;;;;;;;28.23;18.37;;;-1.80;99.90;;;;;;5080142;28;20514;-43
2021/04/13 03:24:24;;;;;;;24.63;17.07;;;-1.80;99.90;;;;;;5081161;28;20532;-44
2021/04/13 03:26:58;;;;;;;25.23;18.23;;;-1.90;99.90;;;;;;5080931;28;20493;-43
2021/04/13 03:29:28;;;;;;;24.63;17.63;;;-1.90;99.90;;;;;;5080719;28;20480;-42
2021/04/13 03:31:57;;;;;;;23.50;16.77;;;-1.80;99.90;;;;;;5081111;28;20484;-43
2021/04/13 03:34:25;;;;;;;27.70;18.47;;;-1.90;99.90;;;;;;5081021;28;20491;-42
2021/04/13 03:36:55;;;;;;;29.47;17.30;;;-1.80;99.90;;;;;;5080498;28;20472;-43
2021/04/13 03:39:27;;;;;;;74.37;40.17;;;-1.90;99.90;;;;;;5081346;28;20865;-43
2021/04/13 03:41:56;;;;;;;84.20;41.77;;;-1.90;99.90;;;;;;5080315;28;20469;-42
2021/04/13 03:44:24;;;;;;;52.03;29.00;;;-1.90;99.90;;;;;;5081069;28;20501;-42
2021/04/13 03:46:51;;;;;;;38.33;22.97;;;-1.90;99.90;;;;;;5080987;28;20485;-46
2021/04/13 03:49:20;;;;;;;35.97;22.80;;;-1.90;99.90;;;;;;5081434;28;20457;-42
2021/04/13 03:51:51;;;;;;;32.60;21.33;;;-1.90;99.90;;;;;;5081047;28;20483;-41
2021/04/13 03:54:20;;;;;;;31.43;20.47;;;-1.90;99.90;;;;;;5080953;28;20746;-44
2021/04/13 03:56:49;;;;;;;28.30;18.80;;;-1.90;99.90;;;;;;5079948;28;20457;-43
2021/04/13 03:59:21;;;;;;;30.10;19.90;;;-2.00;99.90;;;;;;5080869;28;20496;-44
2021/04/13 04:01:49;;;;;;;25.40;18.23;;;-2.00;99.90;;;;;;5080780;28;20466;-45
2021/04/13 04:04:28;;;;;;;26.63;18.87;;;-2.00;99.90;;;;;;5074307;28;20440;-42
2021/04/13 04:06:57;;;;;;;23.73;17.37;;;-1.90;99.90;;;;;;5077967;28;20493;-44
2021/04/13 04:09:37;;;;;;;24.00;16.73;;;-2.00;99.90;;;;;;5080505;28;20786;-46
2021/04/13 04:12:18;;;;;;;25.23;18.47;;;-2.00;99.90;;;;;;5080599;28;20465;-42
2021/04/13 04:15:00;;;;;;;25.53;18.10;;;-2.00;99.90;;;;;;5080499;28;20460;-42
2021/04/13 04:17:30;;;;;;;24.27;16.17;;;-2.00;99.90;;;;;;5080133;28;20457;-42
2021/04/13 04:19:59;;;;;;;27.63;18.60;;;-2.00;99.90;;;;;;5080312;28;20526;-45
2021/04/13 04:22:27;;;;;;;25.90;20.33;;;-2.10;99.90;;;;;;5080771;28;20468;-42
2021/04/13 04:25:11;;;;;;;25.90;18.80;;;-2.00;99.90;;;;;;5080476;28;20504;-42
2021/04/13 04:27:40;;;;;;;25.83;17.93;;;-1.90;99.90;;;;;;5080089;28;20875;-43
2021/04/13 04:30:20;;;;;;;23.77;17.30;;;-2.00;99.90;;;;;;5080322;28;20483;-45
2021/04/13 04:32:47;;;;;;;23.00;17.30;;;-1.90;99.90;;;;;;5079327;28;20460;-46
2021/04/13 04:35:36;;;;;;;22.43;16.20;;;-2.00;99.90;;;;;;5080975;28;20461;-48
2021/04/13 04:38:22;;;;;;;25.53;18.03;;;-2.10;99.90;;;;;;5080521;28;20461;-46
2021/04/13 04:40:59;;;;;;;24.77;18.33;;;-2.00;99.90;;;;;;5080393;28;20466;-43
2021/04/13 04:43:55;;;;;;;22.40;17.10;;;-2.00;99.90;;;;;;5079934;28;20437;-43
2021/04/13 04:46:39;;;;;;;22.70;17.17;;;-2.00;99.90;;;;;;5079928;28;20920;-44
2021/04/13 04:49:08;;;;;;;25.53;18.03;;;-2.00;99.90;;;;;;5079889;28;20439;-46
2021/04/13 04:51:35;;;;;;;23.47;16.73;;;-2.00;99.90;;;;;;5080051;28;20889;-42
2021/04/13 04:54:01;;;;;;;35.87;21.30;;;-2.00;99.90;;;;;;5079693;28;20468;-42
2021/04/13 04:56:28;;;;;;;67.60;37.20;;;-2.00;99.90;;;;;;5079871;28;20518;-42
2021/04/13 04:58:57;;;;;;;37.93;24.63;;;-2.00;99.90;;;;;;5079222;28;20492;-41
2021/04/13 05:01:24;;;;;;;33.40;22.03;;;-2.00;99.90;;;;;;5079782;28;20440;-46
2021/04/13 05:03:51;;;;;;;45.10;29.47;;;-2.10;99.90;;;;;;5071229;28;20852;-48
2021/04/13 05:06:18;;;;;;;33.27;23.93;;;-2.00;99.90;;;;;;5083409;28;20485;-43
2021/04/13 05:08:45;;;;;;;34.37;22.93;;;-1.90;99.90;;;;;;5078375;28;20930;-43
2021/04/13 05:11:12;;;;;;;33.93;22.80;;;-1.90;99.90;;;;;;5079763;28;20754;-42
2021/04/13 05:13:39;;;;;;;28.87;20.97;;;-1.70;99.90;;;;;;5079447;28;20457;-42
2021/04/13 05:16:07;;;;;;;31.70;22.53;;;-1.60;99.90;;;;;;5079239;28;20630;-44
2021/04/13 05:18:33;;;;;;;31.30;21.60;;;-1.50;99.90;;;;;;5078904;28;20461;-45
2021/04/13 05:21:00;;;;;;;43.20;31.07;;;-1.40;99.90;;;;;;5079245;28;20435;-43
2021/04/13 05:23:27;;;;;;;33.37;23.77;;;-1.30;99.90;;;;;;5078987;28;20731;-42
2021/04/13 05:25:53;;;;;;;32.07;26.63;;;-1.20;99.90;;;;;;5079006;28;20835;-43
2021/04/13 05:28:21;;;;;;;30.10;22.87;;;-1.10;99.90;;;;;;5078921;28;20451;-43
2021/04/13 05:30:51;;;;;;;26.20;17.90;;;-1.00;99.90;;;;;;5078995;28;20472;-43
2021/04/13 05:33:19;;;;;;;25.47;17.30;;;-0.90;99.90;;;;;;5078829;28;20514;-44
2021/04/13 05:35:46;;;;;;;23.13;17.87;;;-0.80;99.90;;;;;;5078821;28;20920;-43
2021/04/13 05:38:16;;;;;;;21.60;17.90;;;-0.70;99.90;;;;;;5078800;28;20438;-43
2021/04/13 05:40:43;;;;;;;25.50;18.80;;;-0.70;99.90;;;;;;5078964;28;20766;-43
2021/04/13 05:43:11;;;;;;;23.83;18.10;;;-0.70;99.90;;;;;;5078876;28;20527;-47
2021/04/13 05:45:42;;;;;;;23.50;16.70;;;-0.60;99.90;;;;;;5077656;28;20492;-43
2021/04/13 05:48:10;;;;;;;23.03;18.07;;;-0.40;99.90;;;;;;5078578;28;20897;-43
2021/04/13 05:50:39;;;;;;;25.03;19.33;;;-0.40;99.90;;;;;;5078771;28;20539;-46
2021/04/13 05:53:06;;;;;;;20.70;16.13;;;-0.30;99.90;;;;;;5078295;28;20440;-43
2021/04/13 05:55:38;;;;;;;28.13;19.57;;;-0.20;99.90;;;;;;5078269;28;20515;-43
2021/04/13 05:58:08;;;;;;;26.23;18.80;;;-0.10;99.90;;;;;;5078765;28;20461;-43
2021/04/13 06:00:39;;;;;;;25.17;18.83;;;0.00;99.90;;;;;;5078171;28;20489;-43
2021/04/13 06:03:11;;;;;;;24.57;18.80;;;0.10;99.90;;;;;;5073796;28;20489;-44
2021/04/13 06:05:39;;;;;;;22.93;18.53;;;0.10;99.90;;;;;;5074043;28;20474;-43
2021/04/13 06:08:06;;;;;;;27.67;18.70;;;0.20;99.90;;;;;;5077399;28;20845;-43
2021/04/13 06:10:33;;;;;;;25.97;18.40;;;0.20;99.90;;;;;;5077156;28;20902;-44
2021/04/13 06:13:02;;;;;;;22.57;17.87;;;0.30;99.90;;;;;;5078107;28;20453;-43
2021/04/13 06:15:30;;;;;;;22.83;18.17;;;0.40;99.90;;;;;;5077848;28;20491;-44
2021/04/13 06:17:57;;;;;;;24.00;18.63;;;0.50;99.90;;;;;;5078316;28;20444;-43
2021/04/13 06:20:25;;;;;;;24.90;20.30;;;0.50;99.90;;;;;;5077395;28;20457;-45
2021/04/13 06:22:53;;;;;;;27.27;20.33;;;0.60;99.90;;;;;;5078072;28;20936;-45
2021/04/13 06:25:22;;;;;;;22.13;18.50;;;0.60;99.90;;;;;;5078011;28;20497;-43
2021/04/13 06:27:50;;;;;;;23.43;19.00;;;0.80;99.90;;;;;;5076010;28;20457;-47
2021/04/13 06:30:21;;;;;;;24.47;17.60;;;0.80;99.90;;;;;;5071015;28;20560;-44
2021/04/13 06:32:48;;;;;;;22.47;18.23;;;0.90;99.90;;;;;;5058086;28;20454;-46
2021/04/13 06:35:15;;;;;;;26.40;18.30;;;1.00;99.90;;;;;;5067415;28;20473;-54
2021/04/13 06:37:44;;;;;;;24.43;18.80;;;1.20;99.90;;;;;;5070229;28;20466;-49
2021/04/13 06:40:27;;;;;;;25.07;20.50;;;1.30;99.90;;;;;;5072052;28;20473;-50
2021/04/13 06:43:06;;;;;;;23.43;19.10;;;1.40;99.90;;;;;;5070418;28;20472;-54
2021/04/13 06:45:43;;;;;;;25.50;20.03;;;1.50;99.90;;;;;;5075716;28;20465;-54
2021/04/13 06:48:48;;;;;;;23.90;18.13;;;1.60;99.90;;;;;;5076486;28;20461;-56
2021/04/13 06:51:25;;;;;;;26.33;19.07;;;1.80;99.90;;;;;;5056038;28;20473;-56
2021/04/13 06:54:04;;;;;;;25.30;18.60;;;1.90;99.90;;;;;;5077071;28;20518;-51
2021/04/13 06:56:54;;;;;;;23.03;17.90;;;2.00;99.90;;;;;;5076156;28;20461;-55
2021/04/13 06:59:50;;;;;;;19.93;17.83;;;2.10;99.90;;;;;;5077239;28;20492;-57
2021/04/13 07:02:24;;;;;;;23.07;16.73;;;2.30;99.90;;;;;;5087470;28;20889;-57
2021/04/13 07:04:56;;;;;;;24.40;19.90;;;2.50;99.90;;;;;;5070679;28;20500;-55
2021/04/13 07:07:32;;;;;;;21.27;18.10;;;2.80;99.90;;;;;;5076833;28;20526;-56
2021/04/13 07:10:05;;;;;;;21.73;19.43;;;2.90;12.20;;;;;;5076791;28;20461;-53
2021/04/13 07:12:40;;;;;;;22.57;19.47;;;3.10;1.00;;;;;;5077597;28;20515;-50
2021/04/13 07:15:13;;;;;;;25.23;20.43;;;3.40;1.00;;;;;;5077346;28;20476;-52
2021/04/13 07:17:46;;;;;;;22.07;19.67;;;3.50;99.90;;;;;;5077181;28;20911;-53
2021/04/13 07:20:16;;;;;;;23.80;19.77;;;3.60;99.90;;;;;;5072752;28;20465;-55
2021/04/13 07:22:50;;;;;;;23.20;18.60;;;3.70;1.00;;;;;;5068511;28;20513;-55
2021/04/13 07:25:20;;;;;;;24.70;20.87;;;3.70;1.00;;;;;;5070150;28;20473;-54
2021/04/13 07:27:51;;;;;;;20.63;18.30;;;3.80;99.90;;;;;;5067817;28;20493;-54
2021/04/13 07:30:26;;;;;;;23.63;18.17;;;4.10;43.10;;;;;;5056715;28;20469;-54
2021/04/13 07:32:58;;;;;;;21.03;17.50;;;4.20;28.60;;;;;;5066733;28;20476;-56
2021/04/13 07:35:31;;;;;;;22.33;17.80;;;4.50;20.60;;;;;;5064802;28;20905;-56
2021/04/13 07:38:01;;;;;;;23.60;17.17;;;4.70;99.90;;;;;;5076035;28;20776;-58
2021/04/13 07:40:34;;;;;;;23.07;18.67;;;5.20;1.00;;;;;;5063799;28;20495;-58
2021/04/13 07:43:06;;;;;;;19.40;16.70;;;5.20;99.90;;;;;;5072902;28;20443;-57
2021/04/13 07:45:43;;;;;;;18.23;14.83;;;5.20;91.00;;;;;;5069768;28;20875;-58
2021/04/13 07:48:45;;;;;;;25.70;16.90;;;5.30;55.20;;;;;;5064895;28;20460;-58
2021/04/13 07:51:37;;;;;;;16.90;14.40;;;5.90;15.30;;;;;;5061789;28;20928;-59
2021/04/13 07:54:08;;;;;;;16.57;14.60;;;7.20;1.00;;;;;;5072098;28;20909;-59
2021/04/13 07:56:43;;;;;;;20.27;13.70;;;8.00;1.00;;;;;;5075184;28;20453;-59
2021/04/13 07:59:20;;;;;;;16.70;12.80;;;7.80;1.00;;;;;;5079532;28;20488;-59
2021/04/13 08:01:47;;;;;;;19.90;13.63;;;7.10;1.00;;;;;;5076066;28;20461;-58
2021/04/13 08:04:19;;;;;;;18.50;13.93;;;6.70;1.00;;;;;;5070574;28;20476;-58
2021/04/13 08:06:59;;;;;;;28.27;19.50;;;6.50;1.00;;;;;;5078214;28;20856;-56
2021/04/13 08:09:42;;;;;;;41.17;25.50;;;6.40;1.00;;;;;;5071388;28;20765;-57
2021/04/13 08:12:34;;;;;;;13.57;9.43;;;6.30;1.00;;;;;;5083942;28;20461;-58
2021/04/13 08:15:12;;;;;;;19.23;13.73;;;6.30;1.00;;;;;;5040602;28;20470;-58
2021/04/13 08:18:02;;;;;;;10.00;8.00;;;6.30;1.00;;;;;;5081851;28;20506;-57
2021/04/13 08:20:32;;;;;;;13.67;8.90;;;6.10;1.00;;;;;;5075907;28;20480;-55
2021/04/13 08:23:03;;;;;;;10.73;8.27;;;6.20;1.00;;;;;;5080825;28;20461;-56
2021/04/13 08:25:32;;;;;;;13.23;8.23;;;5.90;1.00;;;;;;5083909;28;20517;-58
2021/04/13 08:28:06;;;;;;;16.87;6.87;;;5.90;1.00;;;;;;5079632;28;20499;-57
2021/04/13 08:30:44;;;;;;;13.63;7.60;;;6.00;1.00;;;;;;5083827;28;20897;-58
2021/04/13 08:33:25;;;;;;;11.30;6.77;;;6.10;1.00;;;;;;5079943;28;20886;-56
2021/04/13 08:36:10;;;;;;;16.30;9.27;;;5.90;1.00;;;;;;5083631;28;20457;-57
2021/04/13 08:38:57;;;;;;;14.07;6.60;;;6.70;1.00;;;;;;5079633;28;20483;-58
2021/04/13 08:41:32;;;;;;;12.07;7.03;;;7.50;1.00;;;;;;5098300;28;20480;-56
2021/04/13 08:44:14;;;;;;;8.43;6.57;;;7.20;1.00;;;;;;5095473;28;20460;-57
2021/04/13 08:46:53;;;;;;;11.60;7.90;;;6.70;1.00;;;;;;5100073;28;20959;-56
2021/04/13 08:49:42;;;;;;;14.27;7.00;;;6.40;1.00;;;;;;5095192;28;20460;-56
2021/04/13 08:52:30;;;;;;;10.10;8.10;;;6.40;1.00;;;;;;5098432;28;20461;-54
2021/04/13 08:55:07;;;;;;;12.40;8.93;;;6.10;1.00;;;;;;5094411;28;20768;-58
2021/04/13 08:57:36;;;;;;;20.57;10.70;;;5.70;1.00;;;;;;5094935;28;20463;-55
2021/04/13 09:00:25;;;;;;;18.87;10.50;;;5.40;1.00;;;;;;5099801;28;20484;-57
2021/04/13 09:02:59;;;;;;;12.93;8.70;;;5.30;1.00;;;;;;5085887;28;20513;-54
2021/04/13 09:05:29;;;;;;;20.33;8.60;;;5.40;1.00;;;;;;5075790;28;20473;-56
2021/04/13 09:08:00;;;;;;;16.03;8.30;;;5.60;1.00;;;;;;5091285;28;20962;-55
2021/04/13 09:10:33;;;;;;;12.80;8.03;;;5.70;1.00;;;;;;5079647;28;20511;-53
2021/04/13 09:13:11;;;;;;;14.00;7.80;;;6.00;1.00;;;;;;5081672;28;20548;-54
2021/04/13 09:15:50;;;;;;;11.30;7.70;;;6.10;1.00;;;;;;5082225;28;20767;-54
2021/04/13 09:18:27;;;;;;;12.37;7.70;;;6.50;1.00;;;;;;5058617;28;20894;-57
2021/04/13 09:21:12;;;;;;;11.47;9.63;;;7.20;1.00;;;;;;5072539;28;20485;-50
2021/04/13 09:23:55;;;;;;;9.10;8.00;;;8.50;1.00;;;;;;5078819;28;20472;-50
2021/04/13 09:26:24;;;;;;;11.43;7.00;;;9.50;1.00;;;;;;5082917;28;20969;-54
2021/04/13 09:28:55;;;;;;;8.83;5.37;;;9.40;1.00;;;;;;5079070;28;20457;-53
2021/04/13 09:31:28;;;;;;;8.93;5.80;;;8.50;1.00;;;;;;5081849;28;20461;-55
2021/04/13 09:34:10;;;;;;;9.40;5.87;;;8.40;1.00;;;;;;5081129;28;20469;-52
2021/04/13 09:36:54;;;;;;;11.37;6.07;;;8.20;1.00;;;;;;5058719;28;20797;-52
2021/04/13 09:39:43;;;;;;;12.27;5.83;;;7.50;1.00;;;;;;5074372;28;20560;-53
2021/04/13 09:42:45;;;;;;;12.27;5.67;;;7.50;1.00;;;;;;5077139;28;20461;-50
2021/04/13 09:45:24;;;;;;;8.57;5.63;;;8.40;1.00;;;;;;5086500;28;20459;-49
2021/04/13 09:48:20;;;;;;;10.67;5.10;;;9.70;1.00;;;;;;5093334;28;21027;-51
2021/04/13 09:51:00;;;;;;;7.87;4.33;;;10.60;1.00;;;;;;5097594;28;20464;-49
2021/04/13 09:54:08;;;;;;;6.90;4.63;;;11.20;99.90;;;;;;5093296;28;20496;-47
2021/04/13 09:57:07;;;;;;;12.27;6.10;;;10.90;99.90;;;;;;5097195;28;20482;-50
2021/04/13 09:59:56;;;;;;;8.30;7.13;;;9.20;99.90;;;;;;5057933;28;20543;-49
2021/04/13 10:02:46;;;;;;;8.87;6.20;;;7.90;1.00;;;;;;5029393;28;20466;-56
2021/04/13 10:05:15;;;;;;;10.17;6.23;;;7.10;1.00;;;;;;5073045;28;20470;-60
2021/04/13 10:07:56;;;;;;;8.27;5.83;;;6.80;1.00;;;;;;5092948;28;20492;-60
2021/04/13 10:10:24;;;;;;;8.63;6.10;;;6.90;1.00;;;;;;5079470;28;20461;-60
2021/04/13 10:13:30;;;;;;;8.60;5.27;;;6.80;1.00;;;;;;5080245;28;20453;-58
2021/04/13 10:16:04;;;;;;;11.30;4.97;;;7.90;1.00;;;;;;5062052;28;20469;-59
2021/04/13 10:19:00;;;;;;;7.70;4.23;;;9.70;1.00;;;;;;5077906;28;20468;-58
2021/04/13 10:21:52;;;;;;;8.10;4.10;;;10.70;1.00;;;;;;5081518;28;20723;-59
2021/04/13 10:24:40;;;;;;;9.63;3.47;;;11.90;1.00;;;;;;5080694;28;20457;-59
2021/04/13 10:27:45;;;;;;;11.70;4.00;;;11.90;99.90;;;;;;5057306;28;20490;-59
2021/04/13 10:30:53;;;;;;;7.17;3.70;;;11.20;99.90;;;;;;5075700;28;20465;-60
2021/04/13 10:33:58;;;;;;;4.10;3.13;;;9.30;99.90;;;;;;5053472;28;20492;-59
2021/04/13 10:36:46;;;;;;;6.97;2.80;;;8.40;1.00;;;;;;5010458;28;20458;-59
2021/04/13 10:39:43;;;;;;;5.53;2.77;;;8.60;1.00;;;;;;5080301;28;20468;-59
2021/04/13 10:42:49;;;;;;;4.13;2.90;;;8.50;1.00;;;;;;5097987;28;20460;-58
2021/04/13 10:45:49;;;;;;;8.73;4.50;;;8.70;1.00;;;;;;5057648;28;20469;-58
2021/04/13 10:49:03;;;;;;;7.63;2.70;;;8.50;99.90;;;;;;5072967;28;20898;-54
2021/04/13 10:52:14;;;;;;;3.20;2.00;;;8.90;99.90;;;;;;5077114;28;20476;-57
2021/04/13 10:55:30;;;;;;;2.50;2.30;;;9.60;99.90;;;;;;5016693;28;20462;-57
2021/04/13 10:58:28;;;;;;;3.90;2.70;;;10.50;99.90;;;;;;5072065;28;20465;-53
2021/04/13 11:01:27;;;;;;;6.30;3.47;;;11.60;99.90;;;;;;5079221;28;20956;-50
2021/04/13 11:04:45;;;;;;;4.80;2.97;;;11.60;99.90;;;;;;5060138;28;20514;-53
2021/04/13 11:08:10;;;;;;;3.83;2.97;;;12.20;99.90;;;;;;5079625;28;20481;-53
2021/04/13 11:11:00;;;;;;;4.60;3.20;;;13.30;99.90;;;;;;5033203;28;20479;-55
2021/04/13 11:13:56;;;;;;;3.50;3.20;;;14.10;99.90;;;;;;5076557;28;20462;-57
2021/04/13 11:16:56;;;;;;;6.63;3.03;;;14.60;99.90;;;;;;5077008;28;20461;-55
2021/04/13 11:19:32;;;;;;;6.13;3.30;;;14.00;99.90;;;;;;5074570;28;20461;-55
2021/04/13 11:22:39;;;;;;;5.27;3.17;;;13.40;99.90;;;;;;5065466;28;20464;-57
2021/04/13 11:25:22;;;;;;;6.87;3.03;;;12.10;99.90;;;;;;4998815;28;20527;-52
2021/04/13 11:28:15;;;;;;;6.87;3.57;;;10.90;99.90;;;;;;4995107;28;20527;-52
2021/04/13 11:31:21;;;;;;;7.30;3.80;;;10.20;99.90;;;;;;5060000;28;20461;-49
2021/04/13 11:34:16;;;;;;;5.70;3.20;;;9.30;99.90;;;;;;5077148;28;20440;-55
2021/04/13 11:37:00;;;;;;;3.83;2.87;;;9.30;99.90;;;;;;5064325;28;20482;-53
2021/04/13 11:39:37;;;;;;;4.53;3.13;;;9.10;99.90;;;;;;5072927;28;20905;-52
2021/04/13 11:42:14;;;;;;;5.80;3.00;;;8.90;99.90;;;;;;5076757;28;20912;-56
2021/04/13 11:44:48;;;;;;;5.60;2.77;;;9.10;99.90;;;;;;5078590;28;20488;-52
2021/04/13 11:47:22;;;;;;;4.23;2.60;;;9.00;99.90;;;;;;5081521;28;20492;-49
2021/04/13 11:50:01;;;;;;;4.73;2.40;;;8.70;99.90;;;;;;5077422;28;20791;-54
2021/04/13 11:52:35;;;;;;;3.40;2.20;;;8.70;99.90;;;;;;5081154;28;20521;-45
2021/04/13 11:55:02;;;;;;;2.87;2.60;;;9.40;99.90;;;;;;5078130;28;20461;-49
2021/04/13 11:57:33;;;;;;;3.10;2.50;;;10.90;99.90;;;;;;5077563;28;20902;-46
2021/04/13 12:00:25;;;;;;;3.83;2.40;;;12.10;99.90;;;;;;5069628;28;20505;-49
2021/04/13 12:03:19;;;;;;;6.07;2.20;;;12.60;99.90;;;;;;5075295;28;20505;-52
2021/04/13 12:05:49;;;;;;;3.93;2.60;;;13.40;99.90;;;;;;5070932;28;20479;-55
2021/04/13 12:08:53;;;;;;;5.10;2.57;;;13.70;99.90;;;;;;5075806;28;20499;-46
2021/04/13 12:11:46;;;;;;;4.03;2.57;;;12.20;99.90;;;;;;5079487;28;20465;-49
2021/04/13 12:14:35;;;;;;;6.87;3.30;;;11.30;99.90;;;;;;5076731;28;20467;-49
2021/04/13 12:17:34;;;;;;;4.50;3.20;;;11.90;99.90;;;;;;5059371;28;20583;-52
2021/04/13 12:20:34;;;;;;;4.53;2.60;;;12.90;99.90;;;;;;5071521;28;20461;-52
2021/04/13 12:23:44;;;;;;;5.17;2.80;;;13.70;99.90;;;;;;5080121;28;20457;-53
2021/04/13 12:26:27;;;;;;;4.70;3.00;;;14.50;99.90;;;;;;5059305;28;20552;-54
2021/04/13 12:28:54;;;;;;;7.53;2.93;;;15.10;99.90;;;;;;5074309;28;20502;-53
2021/04/13 12:31:25;;;;;;;3.80;2.87;;;15.90;99.90;;;;;;5078981;28;20464;-50
2021/04/13 12:34:06;;;;;;;3.03;2.30;;;14.90;99.90;;;;;;5083727;28;20898;-49
2021/04/13 12:36:53;;;;;;;4.23;2.83;;;13.70;99.90;;;;;;5080155;28;20458;-48
2021/04/13 12:39:59;;;;;;;3.30;3.00;;;13.00;99.90;;;;;;5080106;28;20757;-52
2021/04/13 12:42:42;;;;;;;3.83;2.60;;;13.50;99.90;;;;;;5082943;28;20932;-49
2021/04/13 12:45:52;;;;;;;4.37;2.80;;;13.60;99.90;;;;;;5078269;28;20472;-50
2021/04/13 12:48:29;;;;;;;4.47;2.70;;;14.20;99.90;;;;;;5090148;28;20583;-53
2021/04/13 12:51:24;;;;;;;2.70;2.50;;;14.60;99.90;;;;;;5097097;28;20517;-48
2021/04/13 12:54:06;;;;;;;6.07;2.23;;;14.30;99.90;;;;;;5058562;28;20473;-52
2021/04/13 12:56:35;;;;;;;3.07;2.77;;;14.70;99.90;;;;;;5075779;28;20457;-50
2021/04/13 12:59:11;;;;;;;2.50;2.23;;;15.10;99.90;;;;;;5079195;28;20509;-50
2021/04/13 13:01:43;;;;;;;3.00;2.40;;;15.80;99.90;;;;;;5083032;28;20766;-47
2021/04/13 13:04:12;;;;;;;2.80;2.33;;;16.10;99.90;;;;;;5073649;28;20995;-49
2021/04/13 13:06:44;;;;;;;4.50;3.00;;;15.40;99.90;;;;;;5076748;28;20496;-52
2021/04/13 13:09:27;;;;;;;3.70;3.00;;;15.60;99.90;;;;;;5080803;28;20509;-48
2021/04/13 13:11:58;;;;;;;4.63;3.10;;;14.30;99.90;;;;;;5058038;28;20466;-48
2021/04/13 13:14:28;;;;;;;4.70;2.77;;;11.80;99.90;;;;;;5075334;28;20767;-46
2021/04/13 13:16:56;;;;;;;3.60;2.40;;;10.90;99.90;;;;;;5079079;28;20886;-46
2021/04/13 13:19:29;;;;;;;3.30;2.73;;;10.40;99.90;;;;;;5082786;28;20519;-46
2021/04/13 13:21:58;;;;;;;4.27;2.73;;;9.90;99.90;;;;;;5078472;28;20477;-46
2021/04/13 13:24:39;;;;;;;7.43;3.23;;;10.10;99.90;;;;;;5082270;28;20489;-46
2021/04/13 13:27:17;;;;;;;3.07;2.77;;;10.80;99.90;;;;;;5078637;28;20463;-48
2021/04/13 13:29:47;;;;;;;4.40;2.67;;;11.40;99.90;;;;;;5081771;28;20461;-44
2021/04/13 13:32:15;;;;;;;4.07;2.27;;;11.70;99.90;;;;;;5081321;28;20467;-45